PST: 16:13 MST: 17:13 CST: 18:13 EST: 19:13 LDN: 00:13 UTC: 23:13
User Agent: CCBot/2.0 (http://commoncrawl.org/faq/)
IP Address: 54.224.85.115
Hostname: ec2-54-224-85-115.compute-1.amazonaws.com

METAR:
KBFI 232253Z VRB05KT 10SM BKN039 22/11 A3018 RMK AO2 SLP220 T02170106 $
KBFI 232153Z 00000KT 10SM BKN029 BKN036 19/12 A3019 RMK AO2 SLP222 T01890117 $
KBFI 232053Z VRB03KT 10SM BKN027 19/12 A3019 RMK AO2 SLP224 T01940117 58002 $
KBFI 231953Z AUTO 00000KT 10SM BKN019 OVC025 17/12 A3020 RMK AO2 SLP227 T01720122 $

TAF:
KBFI 232102Z 2321/2418 VRB03KT P6SM BKN027
FM 232200 VRB03KT P6SM SCT045
FM 241200 00000KT P6SM SCT014

KBFI 231732Z 2318/2418 VRB04KT P6SM BKN013 OVC017
FM 232000 32006KT P6SM SCT020 BKN040
FM 232300 VRB03KT P6SM SCT045
FM 241200 00000KT P6SM SCT014

KBFI 231513Z 2315/2412 06004KT P6SM OVC018
FM 231700 VRB03KT P6SM SCT015 OVC025
FM 231900 VRB03KT P6SM BKN035
FM 232300 31006KT P6SM SCT040

KBFI 231131Z 2312/2412 VRB03KT 4SM BR SCT012 OVC020
FM 231500 VRB03KT P6SM SCT015 OVC025
FM 231900 VRB03KT P6SM BKN035
FM 232300 31006KT P6SM SCT040

KBFI 230843Z 2309/2406 VRB03KT 4SM -RA SCT008 OVC015
FM 231000 VRB03KT P6SM SCT015 OVC025
FM 231800 33006KT P6SM OVC035
FM 232300 33006KT P6SM SCT040

KBFI 230520Z 2306/2406 VRB04KT P6SM -SHRA OVC030
FM 230900 33006KT P6SM OVC025
FM 231800 33006KT P6SM OVC035
FM 232300 33006KT P6SM SCT040

KBFI 222330Z 2300/2324 24008KT P6SM BKN045 BKN140
FM 230400 19005KT P6SM -SHRA OVC040
FM 231200 00000KT P6SM BKN020 OVC035
FM 231800 28005KT P6SM OVC040
FM 232300 31005KT P6SM SCT045